Time;durP1;ratioP1;P1;durP2;ratioP2;P2;SDS_P1;SDS_P2;PMS_P1;PMS_P2;Temp;Humidity;BMP_temperature;BMP_pressure;BME280_temperature;BME280_humidity;BME280_pressure;Samples;Min_cycle;Max_cycle;Signal;HPM_P1;HPM_P2
2022/05/22 00:00:46;;;;;;;2.02;0.30;;;;;;;13.76;49.78;100587.94;1856999;77;21072;-58
2022/05/22 00:03:14;;;;;;;1.12;0.62;;;;;;;13.87;49.10;100604.08;1830357;78;21053;-58
2022/05/22 00:05:43;;;;;;;1.67;0.80;;;;;;;13.92;48.65;100605.61;1830655;78;21093;-58
2022/05/22 00:08:13;;;;;;;1.35;0.50;;;;;;;13.98;48.60;100591.58;1830474;78;21065;-59
2022/05/22 00:10:42;;;;;;;0.78;0.70;;;;;;;14.01;48.31;100601.98;1830555;78;21654;-59
2022/05/22 00:13:10;;;;;;;0.47;0.47;;;;;;;14.02;48.31;100599.73;1830570;78;21115;-60
2022/05/22 00:16:36;;;;;;;1.07;0.75;;;;;;;14.09;47.32;100596.25;1830516;78;21143;-59
2022/05/22 00:18:09;;;;;;;1.05;0.60;;;;;;;14.15;47.00;100596.41;1834030;77;21049;-58
2022/05/22 00:20:38;;;;;;;1.50;0.90;;;;;;;14.17;47.44;100588.75;1830558;78;21135;-58
2022/05/22 00:23:07;;;;;;;1.72;1.00;;;;;;;14.13;48.50;100586.34;1830477;78;21213;-59
2022/05/22 00:25:35;;;;;;;1.52;0.70;;;;;;;14.09;49.08;100601.55;1830429;78;21037;-59
2022/05/22 00:28:04;;;;;;;1.77;0.88;;;;;;;14.04;49.34;100600.50;1830576;78;21021;-59
2022/05/22 00:30:33;;;;;;;0.82;0.68;;;;;;;14.01;50.59;100589.22;1830486;78;21037;-59
2022/05/22 00:33:02;;;;;;;0.62;0.62;;;;;;;13.99;51.18;100602.54;1830572;78;21040;-58
2022/05/22 00:35:31;;;;;;;2.10;0.62;;;;;;;13.95;50.98;100592.22;1830446;78;21491;-59
2022/05/22 00:37:59;;;;;;;2.17;0.70;;;;;;;13.89;50.85;100602.20;1830549;78;21544;-58
2022/05/22 00:40:28;;;;;;;2.55;0.75;;;;;;;13.85;50.59;100582.14;1830565;78;21131;-60
2022/05/22 00:42:57;;;;;;;1.75;0.68;;;;;;;13.87;50.09;100582.91;1830531;78;21068;-59
2022/05/22 00:45:26;;;;;;;1.50;0.65;;;;;;;13.86;49.96;100573.25;1830488;78;21045;-59
2022/05/22 00:47:56;;;;;;;0.90;0.80;;;;;;;13.87;49.91;100584.23;1830344;78;21559;-60
2022/05/22 00:50:25;;;;;;;1.87;0.70;;;;;;;13.87;50.00;100581.59;1830533;78;21061;-60
2022/05/22 00:52:57;;;;;;;1.52;1.17;;;;;;;13.84;50.38;100572.48;1830626;78;21057;-61
2022/05/22 00:55:29;;;;;;;1.35;0.75;;;;;;;13.83;50.09;100570.80;1830845;78;21166;-61
2022/05/22 00:58:01;;;;;;;0.80;0.60;;;;;;;13.84;49.44;100565.87;1830544;77;21146;-61
2022/05/22 01:00:32;;;;;;;1.77;0.82;;;;;;;13.86;49.03;100552.55;1830456;78;21060;-61
2022/05/22 01:05:51;;;;;;;1.20;0.90;;;;;;;13.88;48.89;100551.52;1861864;77;21147;-59
2022/05/22 01:08:20;;;;;;;2.85;0.90;;;;;;;13.88;48.84;100542.25;1861956;77;21115;-60
2022/05/22 01:10:52;;;;;;;0.75;0.68;;;;;;;13.86;49.08;100546.78;1861740;77;21089;-59
2022/05/22 01:13:32;;;;;;;1.35;0.70;;;;;;;13.85;49.58;100536.27;1859498;77;21077;-61
2022/05/22 01:16:03;;;;;;;1.47;1.10;;;;;;;13.80;50.40;100550.26;1861861;77;21053;-60
2022/05/22 01:18:33;;;;;;;1.55;0.90;;;;;;;13.75;51.26;100545.20;1861903;77;21058;-60
2022/05/22 01:21:02;;;;;;;2.02;1.27;;;;;;;13.69;51.86;100544.23;1860574;77;21062;-60
2022/05/22 01:23:34;;;;;;;1.05;0.95;;;;;;;13.65;51.97;100545.34;1861906;77;21147;-60
2022/05/22 01:26:04;;;;;;;2.12;0.62;;;;;;;13.59;52.53;100531.11;1861566;77;21552;-60
2022/05/22 01:28:33;;;;;;;1.42;0.70;;;;;;;13.55;52.49;100529.10;1861915;77;21505;-61
2022/05/22 01:31:02;;;;;;;2.25;1.00;;;;;;;13.51;52.65;100528.41;1861864;77;21108;-61
2022/05/22 01:33:34;;;;;;;0.55;0.55;;;;;;;13.50;52.42;100529.38;1861736;77;21101;-60
2022/05/22 01:36:06;;;;;;;0.82;0.50;;;;;;;13.47;52.08;100532.17;1861743;77;21140;-60
2022/05/22 01:38:35;;;;;;;1.50;0.70;;;;;;;13.47;51.84;100530.84;1861859;77;21037;-60
2022/05/22 01:41:05;;;;;;;0.60;0.60;;;;;;;13.46;51.54;100530.48;1861889;77;21500;-61
2022/05/22 01:43:38;;;;;;;1.85;0.70;;;;;;;13.44;51.32;100524.39;1860612;77;21134;-60
2022/05/22 01:46:09;;;;;;;1.47;0.57;;;;;;;13.44;51.15;100520.42;1861420;77;21097;-60
2022/05/22 01:48:38;;;;;;;0.70;0.70;;;;;;;13.42;51.07;100524.11;1861738;77;21121;-59
2022/05/22 01:51:07;;;;;;;1.65;0.88;;;;;;;13.40;51.02;100527.30;1861848;77;21062;-59
2022/05/22 01:53:38;;;;;;;1.07;0.70;;;;;;;13.40;51.10;100523.34;1861628;77;21141;-59
2022/05/22 01:56:08;;;;;;;0.90;0.80;;;;;;;13.41;51.20;100519.29;1861815;77;21481;-59
2022/05/22 01:58:38;;;;;;;0.70;0.70;;;;;;;13.42;51.07;100511.72;1861671;77;21611;-60
2022/05/22 02:01:10;;;;;;;0.50;0.50;;;;;;;13.46;50.77;100512.41;1861793;77;21160;-60
2022/05/22 02:03:39;;;;;;;2.65;0.68;;;;;;;13.49;50.54;100518.87;1861761;77;21061;-60
2022/05/22 02:06:08;;;;;;;1.70;0.60;;;;;;;13.50;50.53;100520.11;1861909;77;21561;-60
2022/05/22 02:08:38;;;;;;;4.53;0.68;;;;;;;13.51;50.68;100520.95;1861867;77;21077;-62
2022/05/22 02:11:08;;;;;;;2.15;0.50;;;;;;;13.50;50.86;100524.08;1861949;77;21050;-64
2022/05/22 02:13:39;;;;;;;0.40;0.40;;;;;;;13.50;51.45;100518.79;1861716;77;21501;-64
2022/05/22 02:16:10;;;;;;;1.05;0.68;;;;;;;13.51;51.89;100512.55;1861644;77;21102;-60
2022/05/22 02:18:38;;;;;;;1.15;0.65;;;;;;;13.51;52.27;100509.90;1861815;77;21101;-61
2022/05/22 02:21:08;;;;;;;3.42;0.68;;;;;;;13.51;52.72;100507.25;1861848;77;21167;-61
2022/05/22 02:23:37;;;;;;;1.07;0.65;;;;;;;13.58;53.16;100509.58;1861903;77;21050;-61
2022/05/22 02:26:11;;;;;;;5.58;1.00;;;;;;;13.73;53.65;100507.40;1861670;77;21050;-61
2022/05/22 02:28:41;;;;;;;1.40;0.90;;;;;;;13.83;54.15;100502.43;1861796;77;21550;-61
2022/05/22 02:31:10;;;;;;;1.45;0.80;;;;;;;13.94;54.30;100501.83;1861781;77;21528;-61
2022/05/22 02:33:40;;;;;;;1.30;1.17;;;;;;;14.04;54.50;100500.38;1861787;77;21143;-61
2022/05/22 02:36:13;;;;;;;3.30;1.47;;;;;;;14.15;54.43;100503.26;1861571;77;21171;-59
2022/05/22 02:38:41;;;;;;;1.40;0.60;;;;;;;14.26;54.29;100499.99;1861706;77;21105;-60
2022/05/22 02:41:15;;;;;;;0.88;0.60;;;;;;;14.37;53.90;100502.02;1861619;77;21507;-61
2022/05/22 02:43:44;;;;;;;;;;;;;;;14.48;53.65;100493.81;1864434;77;21097;-60
2022/05/22 02:46:17;;;;;;;1.07;0.78;;;;;;;14.63;53.52;100496.52;1861815;77;20141;-60
2022/05/22 02:48:46;;;;;;;1.35;0.90;;;;;;;14.78;53.11;100492.09;1861777;77;21171;-61
2022/05/22 02:51:17;;;;;;;0.70;0.70;;;;;;;14.95;52.38;100488.41;1861739;77;21559;-60
2022/05/22 02:53:47;;;;;;;1.10;0.80;;;;;;;15.12;51.84;100482.06;1861881;77;21054;-60
2022/05/22 02:56:26;;;;;;;0.93;0.80;;;;;;;15.27;50.29;100481.58;1861781;77;21065;-60
2022/05/22 02:59:05;;;;;;;1.27;0.57;;;;;;;15.48;49.42;100468.30;1861663;77;21101;-60
2022/05/22 03:01:47;;;;;;;1.15;0.68;;;;;;;15.71;48.33;100470.77;1860306;77;21092;-60
2022/05/22 03:04:16;;;;;;;1.00;0.60;;;;;;;16.03;46.53;100467.87;1861895;77;21113;-60
2022/05/22 03:06:45;;;;;;;0.72;0.70;;;;;;;16.10;46.18;100458.55;1861757;77;21085;-59
2022/05/22 03:09:16;;;;;;;0.98;0.70;;;;;;;16.17;46.62;100458.48;1861743;77;21041;-59
2022/05/22 03:11:52;;;;;;;2.30;0.60;;;;;;;16.26;46.63;100458.84;1829325;78;21608;-60
2022/05/22 03:14:20;;;;;;;0.62;0.60;;;;;;;16.32;46.11;100453.09;1829412;77;21112;-56
2022/05/22 03:16:49;;;;;;;0.70;0.70;;;;;;;16.39;45.79;100455.23;1829280;78;21085;-59
2022/05/22 03:19:19;;;;;;;1.10;0.72;;;;;;;16.47;45.41;100456.06;1827838;78;21074;-59
2022/05/22 03:21:48;;;;;;;0.90;0.50;;;;;;;16.57;45.01;100458.45;1829350;78;21183;-59
2022/05/22 03:24:17;;;;;;;0.37;0.37;;;;;;;16.71;45.73;100452.65;1829341;77;21157;-62
2022/05/22 03:26:50;;;;;;;0.95;0.60;;;;;;;16.89;46.55;100459.86;1829238;78;21567;-61
2022/05/22 03:29:19;;;;;;;2.77;0.70;;;;;;;17.12;47.35;100458.26;1829320;78;21092;-61
2022/05/22 03:31:50;;;;;;;0.78;0.50;;;;;;;17.35;47.64;100465.91;1829189;78;21089;-60
2022/05/22 03:34:18;;;;;;;1.67;0.45;;;;;;;17.56;47.90;100463.53;1829270;78;21179;-60
2022/05/22 03:36:49;;;;;;;0.45;0.45;;;;;;;17.77;47.93;100469.58;1827546;78;21105;-61
2022/05/22 03:39:19;;;;;;;0.72;0.65;;;;;;;17.95;48.06;100470.91;1829331;78;21133;-61
2022/05/22 03:41:48;;;;;;;0.53;0.47;;;;;;;18.08;47.52;100470.35;1829292;78;21062;-60
2022/05/22 03:44:18;;;;;;;0.62;0.53;;;;;;;18.25;47.57;100478.90;1829269;78;21432;-61
2022/05/22 03:46:48;;;;;;;0.60;0.60;;;;;;;18.40;47.62;100467.06;1829225;78;21214;-61
2022/05/22 03:49:19;;;;;;;1.37;0.50;;;;;;;18.59;47.45;100461.66;1829044;78;21194;-62
2022/05/22 03:51:49;;;;;;;0.42;0.42;;;;;;;18.76;47.00;100475.01;1829408;78;21611;-61
2022/05/22 03:54:19;;;;;;;1.45;0.57;;;;;;;18.88;46.37;100473.60;1829314;78;21139;-61
2022/05/22 03:56:49;;;;;;;2.40;0.80;;;;;;;18.93;42.60;100468.41;1829403;78;21212;-61
2022/05/22 03:59:23;;;;;;;0.50;0.50;;;;;;;19.01;41.60;100463.31;1829638;78;21065;-62
2022/05/22 04:01:52;;;;;;;0.62;0.60;;;;;;;19.18;42.17;100472.18;1829318;78;21082;-62
2022/05/22 04:04:21;;;;;;;0.80;0.65;;;;;;;19.39;42.31;100472.77;1829527;78;21512;-62
2022/05/22 04:06:50;;;;;;;2.20;0.60;;;;;;;19.66;42.47;100461.18;1829512;78;21026;-62
2022/05/22 04:09:21;;;;;;;0.55;0.50;;;;;;;19.93;42.37;100465.24;1828957;78;21101;-62
2022/05/22 04:11:58;;;;;;;3.42;0.88;;;;;;;20.21;42.23;100461.60;1828093;78;21162;-59
2022/05/22 04:14:27;;;;;;;0.93;0.75;;;;;;;20.49;41.90;100452.58;1829314;78;21102;-59
2022/05/22 04:16:57;;;;;;;0.57;0.40;;;;;;;20.62;40.87;100435.39;1827299;78;21093;-59
2022/05/22 04:19:25;;;;;;;5.65;0.57;;;;;;;20.41;36.24;100442.55;1829423;78;21057;-59
2022/05/22 04:21:55;;;;;;;3.72;0.40;;;;;;;20.14;35.10;100429.22;1829394;78;21690;-59
2022/05/22 04:27:15;;;;;;;0.90;0.50;;;;;;;19.98;34.00;100407.42;1829451;78;21109;-61
2022/05/22 04:29:44;;;;;;;1.85;0.60;;;;;;;19.96;32.76;100402.20;1827872;77;21081;-58
2022/05/22 04:32:13;;;;;;;0.78;0.60;;;;;;;19.95;32.52;100396.48;1830796;77;21132;-62
2022/05/22 04:34:43;;;;;;;1.37;0.53;;;;;;;20.22;32.79;100387.13;1831315;77;21150;-62
2022/05/22 04:37:13;;;;;;;0.62;0.55;;;;;;;20.50;32.01;100394.11;1859988;77;21110;-62
2022/05/22 04:39:43;;;;;;;0.60;0.50;;;;;;;20.66;31.84;100392.31;1860003;75;21121;-61
2022/05/22 04:42:12;;;;;;;0.40;0.40;;;;;;;20.96;31.78;100376.75;1860188;77;21050;-60
2022/05/22 04:44:42;;;;;;;2.08;0.50;;;;;;;21.10;30.46;100381.73;1860140;77;21163;-60
2022/05/22 04:47:13;;;;;;;4.95;0.80;;;;;;;21.21;30.30;100382.95;1848437;76;21073;-61
2022/05/22 04:49:42;;;;;;;1.00;0.50;;;;;;;21.27;29.46;100373.52;1860215;77;21488;-61
2022/05/22 04:52:10;;;;;;;1.35;0.50;;;;;;;21.30;28.76;100404.05;1860072;77;21113;-63
2022/05/22 04:54:39;;;;;;;1.60;0.50;;;;;;;21.34;29.53;100368.44;1860027;76;21365;-63
2022/05/22 04:57:08;;;;;;;0.40;0.40;;;;;;;21.57;29.14;100356.52;1859984;77;21160;-63
2022/05/22 04:59:37;;;;;;;1.15;0.60;;;;;;;21.66;28.91;100381.62;1860070;77;21090;-64
2022/05/22 05:02:07;;;;;;;0.78;0.60;;;;;;;21.89;29.04;100392.92;1860033;77;21623;-64
2022/05/22 05:04:37;;;;;;;0.72;0.47;;;;;;;22.18;29.38;100374.59;1854797;76;21077;-59
2022/05/22 05:07:09;;;;;;;2.22;1.07;;;;;;;22.42;29.35;100385.38;1773132;80;21176;-59
2022/05/22 05:09:56;;;;;;;0.68;0.53;;;;;;;22.60;29.07;100390.34;1828799;78;21089;-59
2022/05/22 05:12:40;;;;;;;0.62;0.45;;;;;;;22.69;28.60;100376.55;1759212;80;21497;-61
2022/05/22 05:15:11;;;;;;;0.30;0.30;;;;;;;22.93;29.24;100391.62;1828834;78;21050;-59
2022/05/22 05:17:43;;;;;;;0.40;0.40;;;;;;;23.21;28.67;100399.70;1773168;80;21103;-59
2022/05/22 05:20:13;;;;;;;0.88;0.60;;;;;;;23.15;28.26;100379.30;1828976;78;21103;-59
2022/05/22 05:22:43;;;;;;;0.62;0.62;;;;;;;23.05;28.18;100393.63;1772100;80;21493;-60
2022/05/22 05:25:15;;;;;;;0.90;0.60;;;;;;;23.01;28.69;100402.95;1828090;78;21114;-59
2022/05/22 05:27:43;;;;;;;1.15;0.60;;;;;;;23.09;28.92;100389.67;1828833;77;21045;-57
2022/05/22 05:30:14;;;;;;;1.32;0.80;;;;;;;22.95;28.12;100387.45;1828691;78;21117;-57
2022/05/22 05:32:44;;;;;;;0.42;0.40;;;;;;;22.71;27.85;100367.34;1828642;78;21572;-58
2022/05/22 05:35:15;;;;;;;0.42;0.40;;;;;;;22.67;28.31;100367.30;1828312;78;21167;-58
2022/05/22 05:37:44;;;;;;;0.82;0.62;;;;;;;22.72;28.91;100361.47;1828682;77;21501;-59
2022/05/22 05:40:14;;;;;;;2.45;0.80;;;;;;;22.80;28.75;100352.70;1773017;80;21101;-60
2022/05/22 05:42:44;;;;;;;2.40;0.60;;;;;;;22.78;28.53;100331.84;1829033;78;21049;-60
2022/05/22 05:45:15;;;;;;;1.02;0.78;;;;;;;22.70;28.82;100357.62;1773440;81;21168;-60
2022/05/22 05:47:47;;;;;;;2.95;0.80;;;;;;;22.69;28.62;100330.92;1826540;78;21117;-60
2022/05/22 05:50:23;;;;;;;7.78;1.30;;;;;;;22.55;28.48;100369.80;1828476;78;21113;-60
2022/05/22 05:53:00;;;;;;;1.30;0.72;;;;;;;22.40;28.78;100323.00;1828220;78;21105;-62
2022/05/22 05:55:49;;;;;;;1.45;0.70;;;;;;;22.28;28.78;100313.79;1828692;78;21611;-62
2022/05/22 05:58:22;;;;;;;0.90;0.75;;;;;;;22.46;29.36;100362.13;1744604;80;21537;-62
2022/05/22 06:00:52;;;;;;;2.65;0.75;;;;;;;22.53;29.28;100336.91;1827970;78;21117;-62
2022/05/22 06:03:22;;;;;;;1.20;0.72;;;;;;;22.72;29.59;100346.23;1828859;78;21084;-62
2022/05/22 06:05:52;;;;;;;3.25;1.02;;;;;;;22.89;29.36;100296.27;1828543;75;21174;-62
2022/05/22 06:08:22;;;;;;;5.55;0.80;;;;;;;22.91;28.77;100243.78;1828721;78;21511;-62
2022/05/22 06:10:53;;;;;;;2.83;0.80;;;;;;;22.92;29.08;100313.91;1773444;81;21101;-62
2022/05/22 06:13:23;;;;;;;2.45;0.75;;;;;;;22.81;29.12;100293.98;1827491;78;21242;-62
2022/05/22 06:15:53;;;;;;;5.20;0.70;;;;;;;22.97;29.81;100307.59;1828652;78;21113;-62
2022/05/22 06:18:22;;;;;;;2.75;0.72;;;;;;;23.15;29.57;100274.56;1828868;78;21049;-62
2022/05/22 06:20:53;;;;;;;1.85;0.70;;;;;;;23.43;29.68;100306.25;1828709;78;21175;-62
2022/05/22 06:23:23;;;;;;;3.08;0.70;;;;;;;23.63;28.88;100285.44;1828644;78;21106;-63
2022/05/22 06:26:14;;;;;;;1.95;0.80;;;;;;;23.61;28.13;100294.13;1828172;78;21160;-62
2022/05/22 06:28:51;;;;;;;1.42;0.80;;;;;;;23.53;28.56;100259.14;1828491;78;21231;-59
2022/05/22 06:31:31;;;;;;;0.85;0.78;;;;;;;23.45;28.10;100306.43;1827841;78;21128;-59
2022/05/22 06:34:16;;;;;;;1.62;0.70;;;;;;;23.60;28.57;100284.39;1828925;78;21523;-59
2022/05/22 06:36:53;;;;;;;2.50;0.72;;;;;;;23.65;28.83;100282.09;1810824;78;21116;-60
2022/05/22 06:42:34;;;;;;;1.62;0.82;;;;;;;23.79;28.90;100273.94;1828643;77;21058;-61
2022/05/22 06:45:30;;;;;;;1.20;0.70;;;;;;;23.78;28.75;100283.86;1827278;77;21156;-61
2022/05/22 06:48:08;;;;;;;1.42;0.60;;;;;;;23.74;28.84;100193.80;1828830;78;21073;-60
2022/05/22 06:50:45;;;;;;;1.75;0.80;;;;;;;23.83;29.15;100276.69;1817902;78;21090;-61
2022/05/22 06:53:14;;;;;;;1.30;0.98;;;;;;;23.75;28.25;100277.44;1823691;78;21187;-61
2022/05/22 06:56:01;;;;;;;2.55;0.82;;;;;;;23.79;28.86;100260.05;1828739;78;21148;-61
2022/05/22 06:58:38;;;;;;;0.70;0.70;;;;;;;23.91;29.11;100249.03;1828719;78;21528;-62
2022/05/22 07:01:20;;;;;;;3.65;0.93;;;;;;;23.97;29.10;100299.48;1812882;78;21054;-62
2022/05/22 07:04:00;;;;;;;3.60;0.93;;;;;;;24.12;28.62;100252.16;1797255;78;21045;-62
2022/05/22 07:06:36;;;;;;;3.30;0.90;;;;;;;24.25;28.58;100270.08;1759632;80;21070;-62
2022/05/22 07:09:19;;;;;;;1.70;0.90;;;;;;;24.12;28.37;100248.13;1817015;79;21057;-62
2022/05/22 07:11:55;;;;;;;15.55;1.17;;;;;;;24.28;28.32;100222.66;1817491;79;21131;-62
2022/05/22 07:14:32;;;;;;;2.45;0.90;;;;;;;24.21;28.45;100222.96;1813278;78;21566;-62
2022/05/22 07:17:13;;;;;;;2.20;0.75;;;;;;;24.26;28.33;100225.18;1817493;78;21135;-58
2022/05/22 07:19:44;;;;;;;1.62;1.00;;;;;;;24.36;28.83;100274.82;1817692;78;21078;-57
2022/05/22 07:22:30;;;;;;;0.75;0.55;;;;;;;24.69;28.67;100211.73;1793751;80;21592;-60
2022/05/22 07:25:00;;;;;;;2.27;1.05;;;;;;;24.88;27.87;100220.01;1809398;78;21382;-59
2022/05/22 07:27:41;;;;;;;1.67;0.80;;;;;;;24.81;27.55;100187.54;1817659;78;21143;-59
2022/05/22 07:30:16;;;;;;;2.08;0.90;;;;;;;24.70;27.83;100247.91;1817677;78;21077;-63
2022/05/22 07:32:46;;;;;;;2.15;1.05;;;;;;;24.65;28.34;100221.47;1779295;80;21092;-64
2022/05/22 07:35:23;;;;;;;0.95;0.70;;;;;;;24.54;27.19;100224.47;1752303;80;21174;-59
2022/05/22 07:38:10;;;;;;;1.62;1.00;;;;;;;24.72;27.88;100237.83;1785233;80;21117;-59
2022/05/22 07:40:46;;;;;;;1.00;0.68;;;;;;;24.77;27.23;100258.38;1780763;80;21532;-59
2022/05/22 07:43:22;;;;;;;0.93;0.62;;;;;;;24.94;27.18;100259.77;1775807;80;21519;-59
2022/05/22 07:46:12;;;;;;;1.20;0.72;;;;;;;25.06;27.60;100247.64;1788130;80;21151;-59
2022/05/22 07:48:45;;;;;;;2.02;0.75;;;;;;;25.23;26.33;100259.27;1788282;80;21095;-59
2022/05/22 07:51:21;;;;;;;3.87;0.98;;;;;;;25.18;26.62;100237.41;1775687;80;21172;-59
2022/05/22 07:54:04;;;;;;;0.65;0.53;;;;;;;25.27;25.80;100222.96;1740580;80;21089;-59
2022/05/22 07:56:37;;;;;;;0.72;0.57;;;;;;;25.25;25.88;100243.84;1806388;79;21175;-59
2022/05/22 07:59:09;;;;;;;;;;;;;;;25.40;26.13;100228.67;1806035;78;21081;-60
2022/05/22 08:01:45;;;;;;;1.52;0.70;;;;;;;25.60;26.04;100239.09;1820058;77;20122;-58
2022/05/22 08:04:37;;;;;;;1.95;0.72;;;;;;;25.81;25.61;100227.79;1800710;78;21141;-59
2022/05/22 08:07:06;;;;;;;0.53;0.40;;;;;;;25.84;24.93;100223.89;1788353;80;21121;-59
2022/05/22 08:09:50;;;;;;;2.12;1.47;;;;;;;25.78;25.54;100244.30;1787245;80;21129;-59
2022/05/22 08:12:19;;;;;;;0.45;0.42;;;;;;;25.90;25.46;100240.76;1788297;80;21152;-59
2022/05/22 08:14:49;;;;;;;0.82;0.68;;;;;;;26.12;25.31;100253.54;1788256;80;21049;-59
2022/05/22 08:17:21;;;;;;;1.75;0.60;;;;;;;26.12;24.36;100229.77;1788154;80;21073;-59
2022/05/22 08:19:51;;;;;;;0.80;0.65;;;;;;;25.88;24.41;100223.39;1788235;80;21075;-59
2022/05/22 08:22:21;;;;;;;0.65;0.60;;;;;;;25.74;24.65;100236.23;1787953;80;21250;-59
2022/05/22 08:25:09;;;;;;;1.75;0.70;;;;;;;25.84;24.58;100256.26;1788129;80;21073;-59
2022/05/22 08:27:40;;;;;;;2.52;0.60;;;;;;;25.95;24.92;100232.52;1787498;80;21117;-58
2022/05/22 08:30:11;;;;;;;2.87;0.78;;;;;;;26.03;24.33;100234.34;1788115;80;21065;-59
2022/05/22 08:32:41;;;;;;;1.30;0.60;;;;;;;25.98;24.66;100222.71;1788214;80;21123;-59
2022/05/22 08:35:12;;;;;;;1.27;0.78;;;;;;;25.75;23.84;100210.45;1788258;80;21065;-58
2022/05/22 08:37:41;;;;;;;0.98;0.55;;;;;;;25.52;24.02;100234.55;1788239;80;21579;-59
2022/05/22 08:40:13;;;;;;;1.70;0.75;;;;;;;25.60;24.46;100239.95;1788341;80;21528;-59
2022/05/22 08:42:45;;;;;;;0.93;0.80;;;;;;;25.42;24.27;100201.05;1788251;80;21108;-58
2022/05/22 08:45:19;;;;;;;0.80;0.80;;;;;;;25.42;24.55;100242.83;1788125;80;21069;-59
2022/05/22 08:48:09;;;;;;;0.70;0.50;;;;;;;25.46;24.44;100235.76;1788161;80;21135;-59
2022/05/22 08:50:39;;;;;;;1.12;0.70;;;;;;;25.51;24.29;100242.80;1788321;80;21077;-59
2022/05/22 08:53:22;;;;;;;2.62;0.85;;;;;;;25.41;25.06;100220.08;1788473;80;21053;-59
2022/05/22 09:01:37;;;;;;;2.85;0.72;;;;;;;25.22;25.31;100215.84;1768494;80;21060;-59
2022/05/22 09:04:45;;;;;;;0.93;0.72;;;;;;;25.24;25.05;100197.17;1788120;79;21085;-60
2022/05/22 09:07:27;;;;;;;1.25;0.70;;;;;;;25.15;25.52;100240.42;1788104;80;21167;-59
2022/05/22 09:10:01;;;;;;;1.52;1.07;;;;;;;25.14;25.24;100230.64;1781949;80;21543;-58
2022/05/22 09:12:58;;;;;;;0.75;0.55;;;;;;;25.52;25.68;100217.55;1786897;80;21800;-59
2022/05/22 09:15:49;;;;;;;0.55;0.50;;;;;;;25.85;25.47;100232.34;1788233;80;21085;-59
2022/05/22 09:18:37;;;;;;;0.78;0.50;;;;;;;26.16;24.32;100227.89;1788286;80;21084;-57
2022/05/22 09:21:08;;;;;;;0.60;0.60;;;;;;;26.07;23.65;100215.44;1788264;80;21033;-57
2022/05/22 09:24:10;;;;;;;1.57;0.65;;;;;;;26.07;23.90;100218.66;1787881;80;21522;-59
2022/05/22 09:26:47;;;;;;;0.60;0.50;;;;;;;26.08;22.86;100187.46;1787925;80;21524;-60
2022/05/22 09:29:27;;;;;;;1.25;0.60;;;;;;;25.88;22.83;100219.87;1788237;80;21077;-60
2022/05/22 09:32:17;;;;;;;2.70;0.98;;;;;;;25.86;23.72;100209.73;1788261;80;21162;-59
2022/05/22 09:35:00;;;;;;;1.00;0.65;;;;;;;26.12;25.45;100193.35;1787816;80;21508;-59
2022/05/22 09:37:58;;;;;;;1.22;0.70;;;;;;;26.19;25.54;100196.52;1787863;80;21093;-60
2022/05/22 09:40:32;;;;;;;1.80;1.10;;;;;;;26.20;25.87;100189.26;1788326;80;21109;-60
2022/05/22 09:43:06;;;;;;;2.77;1.25;;;;;;;26.28;26.45;100181.62;1787731;80;21065;-60
2022/05/22 09:46:08;;;;;;;1.37;0.90;;;;;;;26.36;26.43;100170.81;1771473;80;21135;-59
2022/05/22 09:49:02;;;;;;;1.47;0.80;;;;;;;26.36;26.57;100177.56;1788394;80;21057;-59
2022/05/22 09:51:54;;;;;;;3.37;0.82;;;;;;;26.07;27.13;100187.12;1788226;80;21496;-60
2022/05/22 09:54:31;;;;;;;1.30;0.75;;;;;;;25.91;27.44;100181.23;1788368;80;21101;-59
2022/05/22 09:57:29;;;;;;;1.62;0.80;;;;;;;25.83;26.01;100190.70;1787582;80;21061;-59
2022/05/22 10:00:19;;;;;;;2.12;0.60;;;;;;;25.32;26.29;100180.67;1788258;80;21492;-60
2022/05/22 10:03:06;;;;;;;0.70;0.70;;;;;;;25.06;27.56;100173.58;1788213;80;21072;-60
2022/05/22 10:05:43;;;;;;;1.80;1.10;;;;;;;24.88;27.66;100151.34;1788255;80;21065;-60
2022/05/22 10:08:27;;;;;;;2.17;0.88;;;;;;;24.81;28.46;100156.58;1790862;78;21435;-59
2022/05/22 10:11:02;;;;;;;1.57;0.60;;;;;;;24.82;29.62;100143.44;1806711;79;21108;-60
2022/05/22 10:13:53;;;;;;;0.98;0.70;;;;;;;24.89;29.16;100150.35;1799426;80;21092;-60
2022/05/22 10:16:24;;;;;;;1.42;0.98;;;;;;;24.80;29.23;100156.23;1798431;80;21500;-59
2022/05/22 10:19:05;;;;;;;1.95;0.90;;;;;;;24.83;29.33;100138.41;1798649;80;21116;-60
2022/05/22 10:21:39;;;;;;;2.42;1.10;;;;;;;24.59;29.49;100145.44;1798733;79;21064;-59
2022/05/22 10:24:27;;;;;;;1.80;1.10;;;;;;;24.40;30.10;100120.12;1798077;80;21064;-59
2022/05/22 10:27:23;;;;;;;1.12;0.90;;;;;;;24.21;30.05;100113.19;1798302;80;21523;-59
2022/05/22 10:29:55;;;;;;;4.47;0.78;;;;;;;24.23;30.42;100128.66;1799522;80;21060;-59
2022/05/22 10:32:44;;;;;;;2.08;1.05;;;;;;;24.16;30.88;100118.20;1799258;79;21084;-59
2022/05/22 10:35:22;;;;;;;1.15;0.80;;;;;;;24.26;31.20;100144.48;1799392;80;21567;-59
2022/05/22 10:38:02;;;;;;;2.45;0.80;;;;;;;24.27;31.05;100116.08;1799048;80;21072;-59
2022/05/22 10:43:17;;;;;;;1.12;0.90;;;;;;;24.30;30.65;100096.58;1799363;80;21640;-59
2022/05/22 10:45:47;;;;;;;2.95;0.90;;;;;;;23.89;30.30;100114.77;1799385;80;21068;-59
2022/05/22 10:48:23;;;;;;;0.90;0.80;;;;;;;23.50;31.35;100124.62;1799266;80;21495;-58
2022/05/22 10:51:06;;;;;;;2.15;1.37;;;;;;;23.43;31.75;100123.05;1798706;80;21579;-58
2022/05/22 10:53:53;;;;;;;1.47;0.80;;;;;;;23.36;32.07;100119.82;1780658;80;21092;-58
2022/05/22 10:56:24;;;;;;;1.47;0.60;;;;;;;23.20;31.72;100119.20;1799351;80;21135;-59
2022/05/22 10:58:59;;;;;;;3.50;0.90;;;;;;;23.01;31.87;100121.04;1799308;79;21174;-58
2022/05/22 11:01:37;;;;;;;0.90;0.78;;;;;;;22.83;34.12;100132.29;1799379;80;21068;-58
2022/05/22 11:04:09;;;;;;;1.30;0.78;;;;;;;22.66;32.57;100122.75;1799491;80;21487;-58
2022/05/22 11:06:40;;;;;;;0.82;0.82;;;;;;;22.65;33.25;100114.84;1799458;80;21131;-59
2022/05/22 11:09:09;;;;;;;1.65;0.90;;;;;;;22.66;32.88;100083.00;1791849;79;21239;-58
2022/05/22 11:11:38;;;;;;;1.60;1.00;;;;;;;22.53;33.21;100112.90;1734673;83;21144;-58
2022/05/22 11:14:10;;;;;;;4.10;0.80;;;;;;;22.41;32.82;100093.99;1788205;80;21097;-58
2022/05/22 11:16:39;;;;;;;1.10;0.90;;;;;;;22.29;32.94;100112.16;1788197;80;21057;-58
2022/05/22 11:19:14;;;;;;;0.82;0.65;;;;;;;22.23;33.97;100105.52;1788195;80;21498;-58
2022/05/22 11:21:57;;;;;;;1.45;0.57;;;;;;;22.12;33.71;100099.03;1788094;80;21143;-58
2022/05/22 11:24:50;;;;;;;3.08;1.25;;;;;;;22.05;34.54;100111.34;1788181;80;21131;-58
2022/05/22 11:27:37;;;;;;;2.17;1.30;;;;;;;22.07;34.37;100106.17;1787926;80;21065;-58
2022/05/22 11:30:11;;;;;;;1.72;0.70;;;;;;;22.13;35.08;100100.70;1788228;80;21092;-59
2022/05/22 11:32:43;;;;;;;1.62;0.82;;;;;;;22.23;35.10;100096.14;1787732;80;21480;-58
2022/05/22 11:35:15;;;;;;;1.80;0.90;;;;;;;22.30;35.42;100087.87;1787533;80;21057;-59
2022/05/22 11:37:56;;;;;;;1.50;0.60;;;;;;;22.35;35.71;100076.67;1771650;80;21088;-59
2022/05/22 11:40:27;;;;;;;1.85;0.68;;;;;;;22.42;34.08;100079.09;1788111;80;21728;-59
2022/05/22 11:43:11;;;;;;;3.30;1.00;;;;;;;22.42;30.76;100082.28;1788240;80;21144;-58
2022/05/22 11:45:52;;;;;;;2.85;0.80;;;;;;;22.29;31.45;100080.80;1787247;80;21147;-59
2022/05/22 11:48:43;;;;;;;1.87;0.93;;;;;;;22.33;32.43;100062.58;1788163;80;21057;-58
2022/05/22 11:51:40;;;;;;;1.20;0.90;;;;;;;22.36;32.49;100056.92;1788151;80;21540;-59
2022/05/22 11:54:21;;;;;;;1.95;1.00;;;;;;;22.35;32.90;100060.11;1788160;80;21500;-59
2022/05/22 11:57:04;;;;;;;1.87;0.72;;;;;;;22.41;32.82;100044.37;1787885;80;21535;-58
2022/05/22 11:59:58;;;;;;;1.35;0.95;;;;;;;22.28;32.72;100056.34;1788386;80;21508;-59
2022/05/22 12:02:46;;;;;;;0.98;0.90;;;;;;;22.10;34.82;100052.77;1788147;80;21508;-59
2022/05/22 12:05:33;;;;;;;3.00;0.90;;;;;;;21.98;35.30;100050.30;1783441;80;21081;-59
2022/05/22 12:08:23;;;;;;;1.27;1.00;;;;;;;22.00;35.84;100047.45;1787930;79;21516;-58
2022/05/22 12:11:00;;;;;;;2.25;0.70;;;;;;;22.11;35.81;100016.91;1787878;80;21167;-58
2022/05/22 12:13:37;;;;;;;3.60;1.35;;;;;;;22.01;36.37;100041.61;1787977;80;21077;-60
2022/05/22 12:16:24;;;;;;;1.10;0.78;;;;;;;21.92;36.39;100045.53;1788144;79;21226;-59
2022/05/22 12:19:05;;;;;;;1.95;0.95;;;;;;;21.88;36.06;100032.59;1788287;80;21064;-59